createdAt,value
2022-12-24T00:02:11.171Z,95492.09
2022-12-24T00:05:00.887Z,95485.97
2022-12-24T00:07:47.507Z,95480.31
2022-12-24T00:10:33.141Z,95469.91
2022-12-24T00:13:19.118Z,95482.75
2022-12-24T00:16:05.207Z,95480.56
2022-12-24T00:18:50.927Z,95495.31
2022-12-24T00:21:36.601Z,95485.47
2022-12-24T00:24:22.805Z,95497.50
2022-12-24T00:27:08.904Z,95489.28
2022-12-24T00:29:54.623Z,95489.28
2022-12-24T00:32:40.513Z,95507.47
2022-12-24T00:35:26.101Z,95494.69
2022-12-24T00:38:11.644Z,95485.63
2022-12-24T00:41:02.046Z,95485.91
2022-12-24T00:43:47.861Z,95484.84
2022-12-24T00:46:34.591Z,95485.69
2022-12-24T00:49:20.323Z,95478.50
2022-12-24T00:52:05.961Z,95482.47
2022-12-24T00:54:52.044Z,95486.44
2022-12-24T00:57:38.007Z,95486.09
2022-12-24T01:00:23.679Z,95501.81
2022-12-24T01:03:10.042Z,95507.97
2022-12-24T01:05:55.669Z,95518.13
2022-12-24T01:08:41.683Z,95525.06
2022-12-24T01:11:27.511Z,95508.75
2022-12-24T01:14:13.182Z,95521.34
2022-12-24T01:16:59.079Z,95515.75
2022-12-24T01:19:44.763Z,95516.00
2022-12-24T01:22:30.399Z,95522.69
2022-12-24T01:25:16.101Z,95512.28
2022-12-24T01:28:01.660Z,95519.72
2022-12-24T01:30:48.286Z,95509.56
2022-12-24T01:33:34.340Z,95516.50
2022-12-24T01:36:20.035Z,95491.44
2022-12-24T01:39:05.922Z,95485.28
2022-12-24T01:42:10.803Z,95486.59
2022-12-24T01:44:56.789Z,95478.31
2022-12-24T01:47:42.401Z,95485.47
2022-12-24T01:50:28.050Z,95478.97
2022-12-24T01:53:14.873Z,95479.50
2022-12-24T01:56:00.881Z,95474.09
2022-12-24T01:58:48.798Z,95475.22
2022-12-24T02:01:34.900Z,95471.50
2022-12-24T02:04:36.494Z,95461.34
2022-12-24T02:07:22.508Z,95476.31
2022-12-24T02:10:11.627Z,95470.19
2022-12-24T02:12:58.392Z,95474.19
2022-12-24T02:16:00.230Z,95476.31
2022-12-24T02:19:20.181Z,95486.97
2022-12-24T02:22:27.874Z,95493.09
2022-12-24T02:25:20.374Z,95504.56
2022-12-24T02:28:09.073Z,95498.19
2022-12-24T02:30:59.627Z,95492.28
2022-12-24T02:33:59.637Z,95484.28
2022-12-24T02:36:49.705Z,95497.09
2022-12-24T02:39:57.790Z,95499.75
2022-12-24T02:42:48.643Z,95494.97
2022-12-24T02:45:35.633Z,95488.28
2022-12-24T02:48:22.706Z,95480.56
2022-12-24T02:51:09.939Z,95478.94
2022-12-24T02:53:55.940Z,95483.22
2022-12-24T02:56:56.837Z,95478.94
2022-12-24T02:59:49.258Z,95482.97
2022-12-24T03:02:38.271Z,95477.88
2022-12-24T03:05:42.848Z,95481.84
2022-12-24T03:09:23.409Z,95463.69
2022-12-24T03:12:15.635Z,95455.44
2022-12-24T03:15:01.513Z,95459.16
2022-12-24T03:17:50.301Z,95455.94
2022-12-24T03:20:40.979Z,95460.69
2022-12-24T03:23:26.751Z,95459.09
2022-12-24T03:26:14.851Z,95454.81
2022-12-24T03:29:00.549Z,95469.19
2022-12-24T03:31:54.930Z,95466.28
2022-12-24T03:34:41.115Z,95469.50
2022-12-24T03:37:27.408Z,95464.97
2022-12-24T03:40:13.622Z,95470.31
2022-12-24T03:42:59.444Z,95464.97
2022-12-24T03:45:45.095Z,95450.03
2022-12-24T03:48:32.970Z,95452.22
2022-12-24T03:51:21.630Z,95425.06
2022-12-24T03:54:07.497Z,95430.66
2022-12-24T03:56:53.350Z,95434.69
2022-12-24T03:59:38.969Z,95442.44
2022-12-24T04:02:24.936Z,95446.47
2022-12-24T04:05:16.344Z,95450.47
2022-12-24T04:08:02.240Z,95455.00
2022-12-24T04:10:47.868Z,95444.31
2022-12-24T04:13:33.546Z,95430.75
2022-12-24T04:16:19.315Z,95441.41
2022-12-24T04:19:05.039Z,95437.44
2022-12-24T04:21:51.175Z,95434.78
2022-12-24T04:24:36.876Z,95443.31
2022-12-24T04:27:30.178Z,95451.88
2022-12-24T04:30:18.486Z,95443.56
2022-12-24T04:33:04.378Z,95446.53
2022-12-24T04:35:50.024Z,95449.16
2022-12-24T04:38:35.755Z,95450.75
2022-12-24T04:41:24.609Z,95449.16
2022-12-24T04:44:10.813Z,95444.13
2022-12-24T04:46:56.467Z,95455.09
2022-12-24T04:49:42.099Z,95457.47
2022-12-24T04:52:28.308Z,95459.34
2022-12-24T04:55:14.181Z,95457.19
2022-12-24T04:57:59.932Z,95441.72
2022-12-24T05:00:45.525Z,95444.94
2022-12-24T05:03:31.289Z,95441.22
2022-12-24T05:06:20.041Z,95441.22
2022-12-24T05:09:06.014Z,95452.94
2022-12-24T05:11:51.800Z,95461.19
2022-12-24T05:14:37.517Z,95453.50
2022-12-24T05:17:23.288Z,95460.94
2022-12-24T05:20:09.163Z,95452.94
2022-12-24T05:23:13.524Z,95455.13
2022-12-24T05:26:18.633Z,95453.50
2022-12-24T05:29:05.567Z,95456.72
2022-12-24T05:31:51.367Z,95465.78
2022-12-24T05:34:37.002Z,95464.16
2022-12-24T05:37:22.676Z,95470.56
2022-12-24T05:40:08.877Z,95459.09
2022-12-24T05:42:54.872Z,95463.41
2022-12-24T05:45:40.453Z,95456.78
2022-12-24T05:48:26.038Z,95463.69
2022-12-24T05:51:13.107Z,95457.31
2022-12-24T05:53:59.174Z,95457.06
2022-12-24T05:56:44.906Z,95457.34
2022-12-24T05:59:30.578Z,95442.66
2022-12-24T06:02:16.200Z,95451.47
2022-12-24T06:05:02.068Z,95458.34
2022-12-24T06:07:48.192Z,95458.88
2022-12-24T06:10:33.839Z,95463.13
2022-12-24T06:13:19.470Z,95479.59
2022-12-24T06:16:07.116Z,95486.53
2022-12-24T06:18:53.236Z,95485.47
2022-12-24T06:21:39.152Z,95484.34
2022-12-24T06:24:24.924Z,95486.28
2022-12-24T06:27:10.859Z,95491.88
2022-12-24T06:29:56.966Z,95483.94
2022-12-24T06:32:42.593Z,95491.16
2022-12-24T06:35:28.246Z,95491.97
2022-12-24T06:38:14.842Z,95493.88
2022-12-24T06:41:00.559Z,95488.84
2022-12-24T06:43:47.233Z,95492.03
2022-12-24T06:46:32.835Z,95495.56
2022-12-24T06:49:18.607Z,95498.53
2022-12-24T06:52:04.527Z,95504.94
2022-12-24T06:54:50.536Z,95508.41
2022-12-24T06:57:36.425Z,95499.34
2022-12-24T07:00:22.207Z,95512.44
2022-12-24T07:03:07.857Z,95519.38
2022-12-24T07:05:54.358Z,95522.31
2022-12-24T07:08:40.526Z,95536.75
2022-12-24T07:11:26.751Z,95530.06
2022-12-24T07:14:12.666Z,95524.72
2022-12-24T07:16:59.397Z,95527.97
2022-12-24T07:19:45.659Z,95534.41
2022-12-24T07:22:31.657Z,95533.34
2022-12-24T07:25:17.562Z,95538.69
2022-12-24T07:28:03.357Z,95536.03
2022-12-24T07:30:49.025Z,95538.16
2022-12-24T07:33:34.672Z,95534.41
2022-12-24T07:36:22.049Z,95533.97
2022-12-24T07:39:07.630Z,95535.28
2022-12-24T07:41:53.717Z,95549.78
2022-12-24T07:44:39.758Z,95555.69
2022-12-24T07:47:25.451Z,95543.16
2022-12-24T07:50:11.550Z,95547.50
2022-12-24T07:52:57.611Z,95561.66
2022-12-24T07:55:44.191Z,95566.78
2022-12-24T07:58:30.037Z,95575.84
2022-12-24T08:01:15.774Z,95590.31
2022-12-24T08:04:01.575Z,95588.16
2022-12-24T08:06:47.701Z,95585.22
2022-12-24T08:09:38.396Z,95575.91
2022-12-24T08:12:24.642Z,95590.31
2022-12-24T08:15:10.727Z,95595.66
2022-12-24T08:17:56.590Z,95579.63
2022-12-24T08:20:42.389Z,95591.41
2022-12-24T08:23:28.103Z,95600.25
2022-12-24T08:26:13.939Z,95608.50
2022-12-24T08:28:59.454Z,95600.03
2022-12-24T08:31:45.276Z,95599.53
2022-12-24T08:34:31.200Z,95599.56
2022-12-24T08:37:16.992Z,95592.66
2022-12-24T08:40:02.947Z,95594.03
2022-12-24T08:42:48.909Z,95594.84
2022-12-24T08:45:40.020Z,95587.94
2022-12-24T08:48:26.706Z,95578.31
2022-12-24T08:51:12.866Z,95582.06
2022-12-24T08:53:58.498Z,95581.00
2022-12-24T08:56:45.361Z,95582.59
2022-12-24T08:59:30.990Z,95568.19
2022-12-24T09:02:17.014Z,95569.28
2022-12-24T09:05:02.887Z,95579.97
2022-12-24T09:07:49.170Z,95583.44
2022-12-24T09:10:35.175Z,95570.34
2022-12-24T09:13:21.171Z,95571.94
2022-12-24T09:16:07.910Z,95571.97
2022-12-24T09:18:53.925Z,95558.06
2022-12-24T09:21:39.617Z,95544.97
2022-12-24T09:24:25.417Z,95547.38
2022-12-24T09:27:11.163Z,95551.94
2022-12-24T09:29:57.146Z,95549.78
2022-12-24T09:32:43.377Z,95550.31
2022-12-24T09:35:29.307Z,95552.47
2022-12-24T09:38:16.002Z,95545.78
2022-12-24T09:41:11.763Z,95534.53
2022-12-24T09:44:16.616Z,95527.56
2022-12-24T09:47:28.967Z,95513.94
2022-12-24T09:50:33.929Z,95532.41
2022-12-24T09:53:51.641Z,95538.25
2022-12-24T09:56:41.556Z,95535.50
2022-12-24T09:59:48.266Z,95546.94
2022-12-24T10:02:37.242Z,95545.44
2022-12-24T10:05:36.528Z,95535.06
2022-12-24T10:08:45.167Z,95541.81
2022-12-24T10:12:15.422Z,95538.31
2022-12-24T10:15:25.455Z,95547.66
2022-12-24T10:18:21.780Z,95542.19
2022-12-24T10:21:15.151Z,95549.50
2022-12-24T10:24:08.662Z,95538.50
2022-12-24T10:27:16.876Z,95533.25
2022-12-24T10:30:17.412Z,95535.00
2022-12-24T10:33:18.813Z,95537.63
2022-12-24T10:36:11.881Z,95543.03
2022-12-24T10:39:00.165Z,95541.09
2022-12-24T10:41:49.425Z,95534.59
2022-12-24T10:44:36.137Z,95524.47
2022-12-24T10:47:22.826Z,95516.75
2022-12-24T10:50:17.782Z,95531.03
2022-12-24T10:53:19.729Z,95532.91
2022-12-24T10:56:14.262Z,95537.53
2022-12-24T10:59:00.720Z,95539.94
2022-12-24T11:01:48.366Z,95527.97
2022-12-24T11:04:47.282Z,95527.34
2022-12-24T11:07:33.389Z,95520.94
2022-12-24T11:10:23.934Z,95506.28
2022-12-24T11:13:39.792Z,95520.09
2022-12-24T11:16:32.126Z,95513.22
2022-12-24T11:19:24.441Z,95528.59
2022-12-24T11:22:28.286Z,95531.47
2022-12-24T11:25:22.398Z,95532.53
2022-12-24T11:28:28.978Z,95527.53
2022-12-24T11:31:24.308Z,95513.47
2022-12-24T11:34:33.068Z,95507.88
2022-12-24T11:37:21.931Z,95493.84
2022-12-24T11:40:21.337Z,95497.31
2022-12-24T11:43:21.968Z,95503.53
2022-12-24T11:46:32.156Z,95503.53
2022-12-24T11:49:24.881Z,95490.31
2022-12-24T11:52:10.459Z,95482.50
2022-12-24T11:55:50.400Z,95491.13
2022-12-24T11:58:56.601Z,95497.50
2022-12-24T12:01:50.895Z,95511.53
2022-12-24T12:04:37.343Z,95509.13
2022-12-24T12:07:27.148Z,95510.34
2022-12-24T12:10:19.848Z,95495.19
2022-12-24T12:13:18.221Z,95493.25
2022-12-24T12:17:00.751Z,95487.31
2022-12-24T12:20:04.462Z,95482.97
2022-12-24T12:23:14.816Z,95485.63
2022-12-24T12:26:13.708Z,95497.63
2022-12-24T12:29:01.957Z,95496.16
2022-12-24T12:31:58.041Z,95495.66
2022-12-24T12:35:15.330Z,95505.47
2022-12-24T12:38:05.396Z,95508.59
2022-12-24T12:41:12.326Z,95519.81
2022-12-24T12:44:16.861Z,95513.75
2022-12-24T12:47:05.592Z,95519.53
2022-12-24T12:50:11.443Z,95515.38
2022-12-24T12:53:03.264Z,95523.56
2022-12-24T12:56:11.269Z,95528.41
2022-12-24T12:59:04.827Z,95520.00
2022-12-24T13:02:03.934Z,95531.72
2022-12-24T13:05:19.553Z,95541.00
2022-12-24T13:08:35.346Z,95538.44
2022-12-24T13:11:27.381Z,95546.31
2022-12-24T13:14:42.133Z,95527.84
2022-12-24T13:17:43.278Z,95515.25
2022-12-24T13:20:29.968Z,95513.66
2022-12-24T13:23:24.150Z,95512.03
2022-12-24T13:26:12.982Z,95525.84
2022-12-24T13:29:36.343Z,95522.97
2022-12-24T13:32:22.349Z,95518.66
2022-12-24T13:35:36.954Z,95518.44
2022-12-24T13:38:29.962Z,95518.25
2022-12-24T13:41:41.075Z,95525.84
2022-12-24T13:44:32.918Z,95531.84
2022-12-24T13:47:25.266Z,95544.31
2022-12-24T13:50:58.771Z,95552.03
2022-12-24T13:53:47.067Z,95561.78
2022-12-24T13:56:36.820Z,95567.00
2022-12-24T13:59:22.793Z,95563.00
2022-12-24T14:02:20.134Z,95568.97
2022-12-24T14:05:21.261Z,95567.19
2022-12-24T14:08:11.302Z,95578.75
2022-12-24T14:11:23.045Z,95582.34
2022-12-24T14:14:12.044Z,95599.91
2022-12-24T14:17:00.638Z,95599.41
2022-12-24T14:19:49.871Z,95586.53
2022-12-24T14:22:42.146Z,95589.53
2022-12-24T14:25:28.592Z,95601.69
2022-12-24T14:28:19.296Z,95607.66
2022-12-24T14:31:06.737Z,95612.03
2022-12-24T14:33:52.803Z,95598.56
2022-12-24T14:36:39.608Z,95597.44
2022-12-24T14:39:34.740Z,95604.22
2022-12-24T14:42:39.458Z,95612.63
2022-12-24T14:45:34.178Z,95629.38
2022-12-24T14:48:36.752Z,95631.53
2022-12-24T14:51:36.851Z,95639.13
2022-12-24T14:54:52.156Z,95647.81
2022-12-24T14:57:38.093Z,95651.09
2022-12-24T15:00:26.404Z,95660.84
2022-12-24T15:03:17.610Z,95678.97
2022-12-24T15:06:06.547Z,95677.75
2022-12-24T15:08:52.631Z,95672.72
2022-12-24T15:11:38.308Z,95676.84
2022-12-24T15:14:25.701Z,95678.59
2022-12-24T15:17:12.534Z,95694.00
2022-12-24T15:19:59.310Z,95688.47
2022-12-24T15:22:47.071Z,95695.22
2022-12-24T15:25:33.330Z,95697.47
2022-12-24T15:28:22.871Z,95698.09
2022-12-24T15:31:12.648Z,95707.59
2022-12-24T15:33:59.602Z,95700.16
2022-12-24T15:36:45.487Z,95694.31
2022-12-24T15:39:31.237Z,95690.59
2022-12-24T15:42:19.141Z,95695.97
2022-12-24T15:45:11.838Z,95706.22
2022-12-24T15:48:23.588Z,95707.34
2022-12-24T15:51:10.628Z,95714.34
2022-12-24T15:54:03.475Z,95715.16
2022-12-24T15:56:49.798Z,95715.94
2022-12-24T15:59:36.285Z,95720.53
2022-12-24T16:02:35.860Z,95727.22
2022-12-24T16:05:35.986Z,95729.91
2022-12-24T16:08:24.094Z,95739.06
2022-12-24T16:11:32.239Z,95744.44
2022-12-24T16:14:20.404Z,95744.75
2022-12-24T16:17:18.847Z,95744.22
2022-12-24T16:20:07.855Z,95750.41
2022-12-24T16:22:54.196Z,95742.31
2022-12-24T16:25:39.976Z,95739.63
2022-12-24T16:28:26.523Z,95732.66
2022-12-24T16:31:18.537Z,95724.06
2022-12-24T16:34:05.005Z,95731.03
2022-12-24T16:36:51.100Z,95734.81
2022-12-24T16:39:36.982Z,95743.97
2022-12-24T16:42:41.159Z,95745.84
2022-12-24T16:45:29.105Z,95744.25
2022-12-24T16:48:22.075Z,95741.56
2022-12-24T16:51:08.062Z,95742.66
2022-12-24T16:53:53.833Z,95749.34
2022-12-24T16:56:44.079Z,95746.38
2022-12-24T16:59:29.816Z,95724.63
2022-12-24T17:02:19.499Z,95732.69
2022-12-24T17:05:05.995Z,95737.03
2022-12-24T17:07:51.785Z,95749.09
2022-12-24T17:10:37.775Z,95768.25
2022-12-24T17:13:23.921Z,95769.81
2022-12-24T17:16:09.934Z,95769.81
2022-12-24T17:18:56.469Z,95769.81
2022-12-24T17:21:42.246Z,95768.25
2022-12-24T17:24:28.159Z,95755.28
2022-12-24T17:27:14.337Z,95760.66
2022-12-24T17:30:00.387Z,95759.66
2022-12-24T17:32:46.099Z,95758.78
2022-12-24T17:35:31.760Z,95774.66
2022-12-24T17:38:17.512Z,95778.41
2022-12-24T17:41:10.444Z,95776.25
2022-12-24T17:43:56.558Z,95776.78
2022-12-24T17:46:43.162Z,95790.22
2022-12-24T17:49:29.303Z,95788.06
2022-12-24T17:52:15.335Z,95791.84
2022-12-24T17:55:01.294Z,95792.41
2022-12-24T17:57:46.923Z,95795.59
2022-12-24T18:00:33.520Z,95788.38
2022-12-24T18:03:19.434Z,95792.41
2022-12-24T18:06:08.119Z,95794.56
2022-12-24T18:08:54.251Z,95782.53
2022-12-24T18:11:40.388Z,95780.34
2022-12-24T18:14:26.667Z,95781.38
2022-12-24T18:17:12.978Z,95785.97
2022-12-24T18:20:00.030Z,95782.19
2022-12-24T18:22:46.940Z,95783.00
2022-12-24T18:25:33.220Z,95791.34
2022-12-24T18:28:19.522Z,95799.13
2022-12-24T18:31:08.718Z,95808.81
2022-12-24T18:33:55.987Z,95812.31
2022-12-24T18:36:42.354Z,95819.28
2022-12-24T18:39:28.792Z,95820.38
2022-12-24T18:42:15.181Z,95827.91
2022-12-24T18:45:01.268Z,95831.09
2022-12-24T18:47:47.271Z,95827.34
2022-12-24T18:50:33.366Z,95828.38
2022-12-24T18:53:19.020Z,95828.63
2022-12-24T18:56:16.651Z,95828.16
2022-12-24T18:59:04.126Z,95841.59
2022-12-24T19:01:50.309Z,95839.72
2022-12-24T19:04:36.218Z,95849.41
2022-12-24T19:07:21.793Z,95843.56
2022-12-24T19:10:08.967Z,95850.53
2022-12-24T19:12:55.165Z,95850.84
2022-12-24T19:15:42.179Z,95851.09
2022-12-24T19:18:28.267Z,95855.41
2022-12-24T19:21:15.614Z,95854.63
2022-12-24T19:24:01.266Z,95861.88
2022-12-24T19:26:48.766Z,95861.34
2022-12-24T19:29:34.596Z,95858.16
2022-12-24T19:32:20.536Z,95866.72
2022-12-24T19:35:06.431Z,95851.97
2022-12-24T19:37:52.351Z,95858.66
2022-12-24T19:40:38.594Z,95874.28
2022-12-24T19:43:24.189Z,95879.38
2022-12-24T19:46:12.461Z,95881.25
2022-12-24T19:49:00.622Z,95884.47
2022-12-24T19:51:46.474Z,95893.06
2022-12-24T19:54:32.348Z,95896.63
2022-12-24T19:57:18.028Z,95893.63
2022-12-24T20:00:06.866Z,95878.63
2022-12-24T20:02:58.531Z,95890.97
2022-12-24T20:05:44.693Z,95893.69
2022-12-24T20:08:31.032Z,95892.66
2022-12-24T20:11:20.197Z,95888.38
2022-12-24T20:14:06.859Z,95902.59
2022-12-24T20:16:52.572Z,95894.00
2022-12-24T20:19:38.597Z,95898.56
2022-12-24T20:22:24.325Z,95898.84
2022-12-24T20:25:10.332Z,95900.72
2022-12-24T20:27:56.780Z,95908.78
2022-12-24T20:30:42.391Z,95906.38
2022-12-24T20:33:28.198Z,95919.78
2022-12-24T20:36:16.186Z,95904.44
2022-12-24T20:39:02.120Z,95907.41
2022-12-24T20:41:47.810Z,95906.06
2022-12-24T20:44:35.208Z,95907.41
2022-12-24T20:47:21.174Z,95902.34
2022-12-24T20:50:07.458Z,95915.75
2022-12-24T20:52:53.613Z,95914.66
2022-12-24T20:55:39.388Z,95903.34
2022-12-24T20:58:25.218Z,95911.16
2022-12-24T21:01:19.907Z,95910.34
2022-12-24T21:04:07.420Z,95914.66
2022-12-24T21:06:54.145Z,95912.78
2022-12-24T21:09:41.321Z,95914.13
2022-12-24T21:12:45.622Z,95918.97
2022-12-24T21:15:36.980Z,95924.34
2022-12-24T21:18:22.551Z,95916.31
2022-12-24T21:21:08.201Z,95918.47
2022-12-24T21:23:55.754Z,95927.63
2022-12-24T21:26:41.544Z,95933.53
2022-12-24T21:29:27.508Z,95931.97
2022-12-24T21:32:13.371Z,95929.81
2022-12-24T21:34:58.953Z,95925.78
2022-12-24T21:37:44.806Z,95929.84
2022-12-24T21:40:30.532Z,95913.22
2022-12-24T21:43:16.278Z,95926.59
2022-12-24T21:46:06.776Z,95927.72
2022-12-24T21:49:14.073Z,95927.72
2022-12-24T21:52:00.497Z,95930.41
2022-12-24T21:54:46.682Z,95938.16
2022-12-24T21:57:52.536Z,95939.78
2022-12-24T22:00:39.599Z,95937.34
2022-12-24T22:03:25.258Z,95945.97
2022-12-24T22:06:34.307Z,95942.19
2022-12-24T22:09:38.682Z,95945.41
2022-12-24T22:12:25.491Z,95944.34
2022-12-24T22:15:11.574Z,95941.66
2022-12-24T22:17:57.312Z,95937.88
2022-12-24T22:20:44.739Z,95942.72
2022-12-24T22:23:30.438Z,95942.72
2022-12-24T22:26:17.786Z,95945.91
2022-12-24T22:29:06.931Z,95945.91
2022-12-24T22:31:52.551Z,95948.59
2022-12-24T22:34:38.110Z,95945.91
2022-12-24T22:37:23.786Z,95943.50
2022-12-24T22:40:10.876Z,95950.75
2022-12-24T22:42:58.144Z,95955.59
2022-12-24T22:45:43.987Z,95953.16
2022-12-24T22:48:29.718Z,95956.66
2022-12-24T22:51:17.624Z,95953.97
2022-12-24T22:54:04.044Z,95946.97
2022-12-24T22:56:49.739Z,95942.16
2022-12-24T22:59:35.427Z,95959.06
2022-12-24T23:02:27.809Z,95952.34
2022-12-24T23:05:15.541Z,95958.50
2022-12-24T23:08:01.403Z,95962.56
2022-12-24T23:10:47.218Z,95956.63
2022-12-24T23:13:51.679Z,95969.00
2022-12-24T23:16:37.827Z,95962.00
2022-12-24T23:19:23.604Z,95959.59
2022-12-24T23:22:10.676Z,95958.00
2022-12-24T23:24:56.396Z,95962.00
2022-12-24T23:27:42.000Z,95965.00
2022-12-24T23:30:27.618Z,95962.81
2022-12-24T23:33:13.308Z,95970.59
2022-12-24T23:35:59.038Z,95967.09
2022-12-24T23:38:44.805Z,95960.41
2022-12-24T23:41:31.076Z,95971.94
2022-12-24T23:44:17.062Z,95974.63
2022-12-24T23:47:02.897Z,95978.13
2022-12-24T23:49:48.774Z,95965.22
2022-12-24T23:52:34.404Z,95979.19
2022-12-24T23:55:20.210Z,95973.31
2022-12-24T23:58:07.058Z,95981.63
